Time;durP1;ratioP1;P1;durP2;ratioP2;P2;SDS_P1;SDS_P2;PMS_P1;PMS_P2;Temp;Humidity;BMP_temperature;BMP_pressure;BME280_temperature;BME280_humidity;BME280_pressure;Samples;Min_cycle;Max_cycle;Signal;HPM_P1;HPM_P2
2023/01/25 00:01:42;;;;;;;34.58;21.75;;;4.10;99.90;;;;;;4997860;28;20709;-80
2023/01/25 00:04:08;;;;;;;33.83;20.88;;;3.80;99.90;;;;;;4997630;28;20211;-80
2023/01/25 00:06:33;;;;;;;33.55;20.63;;;3.50;99.90;;;;;;4999087;28;20176;-79
2023/01/25 00:08:59;;;;;;;30.85;20.88;;;3.40;99.90;;;;;;4997911;28;20173;-80
2023/01/25 00:11:25;;;;;;;46.95;21.73;;;3.50;99.90;;;;;;4998762;28;20264;-79
2023/01/25 00:13:53;;;;;;;41.28;22.63;;;3.60;99.90;;;;;;5000132;28;20177;-80
2023/01/25 00:16:19;;;;;;;35.55;21.02;;;3.40;99.90;;;;;;4999314;28;20168;-79
2023/01/25 00:18:44;;;;;;;35.75;19.52;;;3.50;99.90;;;;;;4999604;28;20521;-79
2023/01/25 00:21:20;;;;;;;37.97;20.92;;;3.30;99.90;;;;;;4999577;28;20189;-79
2023/01/25 00:23:46;;;;;;;38.92;20.63;;;3.40;99.90;;;;;;4998696;28;20204;-80
2023/01/25 00:26:12;;;;;;;33.22;18.73;;;3.50;99.90;;;;;;4996457;28;20294;-82
2023/01/25 00:28:38;;;;;;;35.35;20.52;;;3.70;99.90;;;;;;4996284;28;20180;-83
2023/01/25 00:31:06;;;;;;;32.42;20.40;;;3.50;99.90;;;;;;4996403;28;20189;-79
2023/01/25 00:33:59;;;;;;;35.00;20.80;;;3.70;99.90;;;;;;4996521;28;20173;-80
2023/01/25 00:36:27;;;;;;;32.05;19.60;;;3.50;99.90;;;;;;4996257;28;20165;-79
2023/01/25 00:38:53;;;;;;;32.53;19.55;;;3.80;99.90;;;;;;4995179;28;20255;-80
2023/01/25 00:41:19;;;;;;;36.75;20.67;;;4.10;99.90;;;;;;4995093;28;20550;-81
2023/01/25 00:43:45;;;;;;;36.38;21.63;;;4.40;99.90;;;;;;4994190;28;20201;-84
2023/01/25 00:46:15;;;;;;;36.63;20.52;;;4.40;99.90;;;;;;4995273;28;20526;-79
2023/01/25 00:48:40;;;;;;;30.70;20.58;;;4.10;99.90;;;;;;4995962;28;20227;-80
2023/01/25 00:51:06;;;;;;;33.75;20.67;;;4.10;99.90;;;;;;4996263;28;20189;-80
2023/01/25 00:53:32;;;;;;;33.08;20.73;;;4.30;99.90;;;;;;4994922;28;20590;-79
2023/01/25 00:55:57;;;;;;;32.80;21.58;;;4.20;99.90;;;;;;4995762;28;20547;-80
2023/01/25 00:58:23;;;;;;;38.40;21.20;;;4.20;99.90;;;;;;4995740;28;20173;-80
2023/01/25 01:00:48;;;;;;;33.22;20.08;;;3.70;99.90;;;;;;4994460;28;20275;-83
2023/01/25 01:03:15;;;;;;;35.00;21.15;;;3.70;99.90;;;;;;4994738;28;20207;-80
2023/01/25 01:05:40;;;;;;;36.65;20.42;;;3.80;99.90;;;;;;4994105;28;20795;-80
2023/01/25 01:08:06;;;;;;;35.67;19.42;;;3.50;99.90;;;;;;4994571;28;20170;-80
2023/01/25 01:10:31;;;;;;;32.72;20.10;;;3.40;99.90;;;;;;4994490;28;20851;-81
2023/01/25 01:12:57;;;;;;;33.25;19.88;;;3.50;99.90;;;;;;4994492;28;20260;-81
2023/01/25 01:15:23;;;;;;;33.30;19.52;;;3.60;99.90;;;;;;4996172;28;20638;-80
2023/01/25 01:17:49;;;;;;;30.05;19.15;;;3.90;99.90;;;;;;4994382;28;20216;-79
2023/01/25 01:20:15;;;;;;;38.75;22.13;;;4.10;99.90;;;;;;4995701;28;20196;-79
2023/01/25 01:22:41;;;;;;;39.10;21.92;;;4.30;99.90;;;;;;4995821;28;20551;-79
2023/01/25 01:25:07;;;;;;;32.58;19.92;;;3.90;99.90;;;;;;4995588;28;20219;-82
2023/01/25 01:27:33;;;;;;;33.40;19.85;;;3.60;99.90;;;;;;4994165;28;20256;-80
2023/01/25 01:29:58;;;;;;;33.33;20.27;;;3.80;99.90;;;;;;4993924;28;20590;-80
2023/01/25 01:32:24;;;;;;;31.30;18.92;;;3.70;99.90;;;;;;4994282;28;20176;-80
2023/01/25 01:34:49;;;;;;;36.40;20.45;;;3.40;99.90;;;;;;4995206;28;20231;-79
2023/01/25 01:37:15;;;;;;;40.08;21.83;;;3.40;99.90;;;;;;4995087;28;20219;-79
2023/01/25 01:39:40;;;;;;;36.40;20.60;;;3.50;99.90;;;;;;4995019;28;20189;-79
2023/01/25 01:42:06;;;;;;;34.85;20.38;;;3.70;99.90;;;;;;4994362;28;20518;-79
2023/01/25 01:44:45;;;;;;;34.58;20.50;;;3.80;99.90;;;;;;4993728;28;20380;-83
2023/01/25 01:47:26;;;;;;;33.33;20.38;;;3.80;99.90;;;;;;4996460;28;20179;-78
2023/01/25 01:50:00;;;;;;;31.38;19.77;;;3.90;99.90;;;;;;4997891;28;20216;-79
2023/01/25 01:52:36;;;;;;;34.97;20.38;;;4.10;99.90;;;;;;4993591;28;20168;-80
2023/01/25 01:55:07;;;;;;;32.20;18.95;;;4.20;99.90;;;;;;4994455;28;20165;-81
2023/01/25 01:57:54;;;;;;;33.20;20.10;;;4.10;99.90;;;;;;4993524;28;20184;-80
2023/01/25 02:00:24;;;;;;;32.53;18.90;;;3.80;99.90;;;;;;4994680;28;20678;-80
2023/01/25 02:02:51;;;;;;;33.53;18.65;;;4.00;99.90;;;;;;4993152;28;20181;-80
2023/01/25 02:05:28;;;;;;;33.35;20.15;;;3.70;99.90;;;;;;4993152;28;20208;-80
2023/01/25 02:07:56;;;;;;;40.47;22.80;;;3.60;99.90;;;;;;4994838;28;20173;-81
2023/01/25 02:10:25;;;;;;;30.83;19.67;;;3.70;99.90;;;;;;4994593;28;20661;-80
2023/01/25 02:12:54;;;;;;;37.25;21.05;;;3.50;99.90;;;;;;4993465;28;20170;-79
2023/01/25 02:15:20;;;;;;;33.00;19.95;;;3.50;99.90;;;;;;4994730;28;20197;-80
2023/01/25 02:17:47;;;;;;;35.30;21.20;;;3.60;99.90;;;;;;4992874;28;20223;-80
2023/01/25 02:20:20;;;;;;;35.47;21.77;;;3.70;99.90;;;;;;4994101;28;20291;-79
2023/01/25 02:22:59;;;;;;;39.72;22.27;;;3.70;99.90;;;;;;4994325;28;20617;-80
2023/01/25 02:25:24;;;;;;;44.30;21.10;;;3.80;99.90;;;;;;4993223;28;20296;-79
2023/01/25 02:28:05;;;;;;;32.97;19.52;;;3.20;99.90;;;;;;4994099;28;20552;-80
2023/01/25 02:30:32;;;;;;;32.25;18.75;;;3.20;99.90;;;;;;4993008;28;20556;-79
2023/01/25 02:32:58;;;;;;;36.35;20.52;;;3.40;99.90;;;;;;4994041;28;20165;-79
2023/01/25 02:35:44;;;;;;;36.22;20.48;;;3.50;99.90;;;;;;4992508;28;20182;-82
2023/01/25 02:38:14;;;;;;;37.05;21.02;;;3.60;99.90;;;;;;4993778;28;20179;-80
2023/01/25 02:40:54;;;;;;;40.13;22.23;;;3.70;99.90;;;;;;4993815;28;20220;-80
2023/01/25 02:43:23;;;;;;;36.80;21.95;;;3.80;99.90;;;;;;4994089;28;20161;-81
2023/01/25 02:45:54;;;;;;;39.17;21.88;;;3.80;99.90;;;;;;4994001;28;20188;-80
2023/01/25 02:48:20;;;;;;;36.97;22.15;;;3.80;99.90;;;;;;4991458;28;20332;-80
2023/01/25 02:50:46;;;;;;;38.58;20.17;;;3.70;99.90;;;;;;4992306;28;20670;-80
2023/01/25 02:53:11;;;;;;;38.13;21.60;;;3.60;99.90;;;;;;4992669;28;20629;-80
2023/01/25 02:55:37;;;;;;;39.55;22.20;;;3.30;99.90;;;;;;4993930;28;20228;-81
2023/01/25 02:58:03;;;;;;;35.30;19.95;;;3.20;99.90;;;;;;4993712;28;20169;-80
2023/01/25 03:00:28;;;;;;;35.75;21.35;;;3.30;99.90;;;;;;4993858;28;20667;-81
2023/01/25 03:02:54;;;;;;;41.47;22.88;;;3.40;99.90;;;;;;4993710;28;20172;-80
2023/01/25 03:05:19;;;;;;;34.00;20.25;;;3.30;99.90;;;;;;4993555;28;20256;-80
2023/01/25 03:07:45;;;;;;;35.63;21.63;;;3.20;99.90;;;;;;4993635;28;20260;-79
2023/01/25 03:10:11;;;;;;;37.92;20.77;;;3.20;99.90;;;;;;4992305;28;20201;-80
2023/01/25 03:12:36;;;;;;;36.95;20.60;;;3.40;99.90;;;;;;4993690;28;20165;-81
2023/01/25 03:15:02;;;;;;;38.33;22.85;;;3.20;99.90;;;;;;4993564;28;20173;-80
2023/01/25 03:17:30;;;;;;;35.17;21.70;;;3.20;99.90;;;;;;4992308;28;20507;-80
2023/01/25 03:19:55;;;;;;;36.83;21.30;;;3.60;99.90;;;;;;4992463;28;20197;-80
2023/01/25 03:22:22;;;;;;;36.03;21.35;;;3.50;99.90;;;;;;4992505;28;20173;-79
2023/01/25 03:24:48;;;;;;;35.90;21.65;;;3.60;99.90;;;;;;4992654;28;20209;-80
2023/01/25 03:27:15;;;;;;;37.05;21.85;;;3.50;99.90;;;;;;4992239;28;20165;-81
2023/01/25 03:29:41;;;;;;;33.08;20.52;;;3.50;99.90;;;;;;4991960;28;20284;-79
2023/01/25 03:32:07;;;;;;;37.40;21.20;;;3.30;99.90;;;;;;4992515;28;20240;-80
2023/01/25 03:34:33;;;;;;;35.55;21.27;;;3.40;99.90;;;;;;4992308;28;20228;-80
2023/01/25 03:36:58;;;;;;;37.35;21.30;;;3.70;99.90;;;;;;4993317;28;20634;-80
2023/01/25 03:39:24;;;;;;;40.53;20.98;;;3.70;99.90;;;;;;4993029;28;20231;-80
2023/01/25 03:41:49;;;;;;;40.10;21.35;;;3.70;99.90;;;;;;4991917;28;20161;-81
2023/01/25 03:44:15;;;;;;;36.67;21.50;;;3.70;99.90;;;;;;4992975;28;20213;-80
2023/01/25 03:46:41;;;;;;;38.40;20.75;;;4.00;99.90;;;;;;4993255;28;20169;-80
2023/01/25 03:49:07;;;;;;;38.05;22.58;;;4.10;99.90;;;;;;4993016;28;20181;-81
2023/01/25 03:51:33;;;;;;;36.33;19.23;;;3.50;99.90;;;;;;4991671;28;20170;-81
2023/01/25 03:53:59;;;;;;;34.45;20.75;;;3.20;99.90;;;;;;4992719;28;20260;-81
2023/01/25 03:56:24;;;;;;;42.58;21.50;;;3.10;99.90;;;;;;4991963;28;20184;-80
2023/01/25 03:58:50;;;;;;;33.28;19.80;;;3.00;99.90;;;;;;4994259;28;20180;-80
2023/01/25 04:01:16;;;;;;;38.50;22.83;;;3.10;99.90;;;;;;4996649;28;20705;-80
2023/01/25 04:03:41;;;;;;;38.22;21.80;;;3.30;99.90;;;;;;4996818;28;20169;-80
2023/01/25 04:06:07;;;;;;;35.28;20.67;;;3.30;99.90;;;;;;4996842;28;20165;-80
2023/01/25 04:08:33;;;;;;;32.20;20.35;;;3.00;99.90;;;;;;4996891;28;20989;-80
2023/01/25 04:11:08;;;;;;;38.75;21.98;;;2.90;99.90;;;;;;4996927;28;20264;-80
2023/01/25 04:13:35;;;;;;;41.35;22.00;;;3.00;99.90;;;;;;4997467;28;20571;-80
2023/01/25 04:16:01;;;;;;;39.10;22.63;;;3.10;99.90;;;;;;4995674;28;20177;-80
2023/01/25 04:18:27;;;;;;;50.85;23.88;;;3.20;99.90;;;;;;4995796;28;20187;-80
2023/01/25 04:20:54;;;;;;;34.42;21.05;;;3.50;99.90;;;;;;4995747;28;20284;-80
2023/01/25 04:23:20;;;;;;;35.88;20.60;;;3.70;99.90;;;;;;4995866;28;20188;-79
2023/01/25 04:26:04;;;;;;;40.75;23.25;;;3.70;99.90;;;;;;4995481;28;20217;-80
2023/01/25 04:28:31;;;;;;;34.72;21.80;;;3.80;99.90;;;;;;4997081;28;20176;-80
2023/01/25 04:30:57;;;;;;;37.13;21.08;;;3.90;99.90;;;;;;4996847;28;20185;-81
2023/01/25 04:33:24;;;;;;;48.67;21.83;;;3.60;99.90;;;;;;4996619;28;20645;-84
2023/01/25 04:35:50;;;;;;;38.05;21.20;;;3.60;99.90;;;;;;4995611;28;20180;-80
2023/01/25 04:38:16;;;;;;;39.28;20.92;;;3.40;99.90;;;;;;4995386;28;20279;-84
2023/01/25 04:40:43;;;;;;;40.13;20.75;;;3.50;99.90;;;;;;4995661;28;20197;-81
2023/01/25 04:43:09;;;;;;;43.75;24.45;;;3.30;99.90;;;;;;4997409;28;20713;-80
2023/01/25 04:45:35;;;;;;;40.75;23.48;;;3.40;99.90;;;;;;5006799;28;20263;-80
2023/01/25 04:48:08;;;;;;;39.88;23.52;;;3.70;99.90;;;;;;5002151;28;20177;-80
2023/01/25 04:50:34;;;;;;;36.10;21.40;;;4.00;99.90;;;;;;4997325;28;20291;-83
2023/01/25 04:53:00;;;;;;;37.85;22.33;;;3.80;99.90;;;;;;4994761;28;20227;-82
2023/01/25 04:55:25;;;;;;;39.85;21.02;;;3.60;99.90;;;;;;4995863;28;20181;-84
2023/01/25 04:57:51;;;;;;;48.28;23.40;;;3.00;99.90;;;;;;4994766;28;20170;-80
2023/01/25 05:00:18;;;;;;;38.90;22.00;;;3.30;99.90;;;;;;4995847;28;20200;-80
2023/01/25 05:02:43;;;;;;;37.65;22.50;;;3.30;99.90;;;;;;4996368;28;20165;-81
2023/01/25 05:05:09;;;;;;;42.05;22.50;;;3.10;99.90;;;;;;4996154;28;20209;-83
2023/01/25 05:07:35;;;;;;;39.13;22.08;;;3.20;99.90;;;;;;4994630;28;20199;-81
2023/01/25 05:10:01;;;;;;;34.22;21.80;;;3.50;99.90;;;;;;4994936;28;20650;-81
2023/01/25 05:12:26;;;;;;;38.20;21.38;;;3.40;99.90;;;;;;4995479;28;20203;-80
2023/01/25 05:14:52;;;;;;;36.05;21.10;;;3.50;99.90;;;;;;4995339;28;20171;-81
2023/01/25 05:17:18;;;;;;;40.03;22.38;;;3.40;99.90;;;;;;4994045;28;20532;-81
2023/01/25 05:19:43;;;;;;;37.97;23.00;;;3.50;99.90;;;;;;4996472;28;20203;-81
2023/01/25 05:22:17;;;;;;;40.65;23.45;;;3.80;99.90;;;;;;4994950;28;20168;-81
2023/01/25 05:24:44;;;;;;;38.28;22.05;;;3.50;99.90;;;;;;4994711;28;20205;-81
2023/01/25 05:27:11;;;;;;;37.42;22.33;;;3.30;99.90;;;;;;4995208;28;20244;-80
2023/01/25 05:29:42;;;;;;;36.88;23.17;;;3.30;99.90;;;;;;4995149;28;20558;-80
2023/01/25 05:32:14;;;;;;;38.08;22.50;;;3.40;99.90;;;;;;4993926;28;20177;-81
2023/01/25 05:34:40;;;;;;;38.17;21.35;;;3.20;99.90;;;;;;4994738;28;20574;-80
2023/01/25 05:37:07;;;;;;;36.38;21.52;;;3.00;99.90;;;;;;4993420;28;20257;-80
2023/01/25 05:39:33;;;;;;;40.92;24.05;;;2.80;99.90;;;;;;4994531;28;20200;-82
2023/01/25 05:41:59;;;;;;;40.60;22.05;;;2.80;99.90;;;;;;4993436;28;20165;-80
2023/01/25 05:44:25;;;;;;;40.58;23.10;;;2.80;99.90;;;;;;4995383;28;20205;-80
2023/01/25 05:46:50;;;;;;;38.72;22.65;;;2.80;99.90;;;;;;4993140;28;20172;-80
2023/01/25 05:49:17;;;;;;;60.63;24.27;;;3.00;99.90;;;;;;4994199;28;20179;-80
2023/01/25 05:51:43;;;;;;;42.35;23.80;;;3.20;99.90;;;;;;4994207;28;20165;-80
2023/01/25 05:54:13;;;;;;;37.42;23.17;;;3.40;99.90;;;;;;4993009;28;20185;-81
2023/01/25 05:56:39;;;;;;;40.83;21.13;;;3.40;99.90;;;;;;4993147;28;20205;-80
2023/01/25 05:59:05;;;;;;;38.13;22.05;;;3.10;99.90;;;;;;4994289;28;20196;-80
2023/01/25 06:01:31;;;;;;;40.08;22.30;;;3.00;99.90;;;;;;4993117;28;20166;-81
2023/01/25 06:03:57;;;;;;;45.45;21.92;;;3.30;99.90;;;;;;4994580;28;20205;-80
2023/01/25 06:06:23;;;;;;;41.47;22.95;;;3.70;99.90;;;;;;4994390;28;20621;-82
2023/01/25 06:08:49;;;;;;;42.83;23.30;;;3.60;99.90;;;;;;4994000;28;20169;-80
2023/01/25 06:11:18;;;;;;;35.88;22.05;;;3.60;99.90;;;;;;4992792;28;20193;-80
2023/01/25 06:13:44;;;;;;;41.78;21.77;;;3.60;99.90;;;;;;4994083;28;20165;-80
2023/01/25 06:16:10;;;;;;;41.83;23.70;;;3.40;99.90;;;;;;4993651;28;20181;-80
2023/01/25 06:18:35;;;;;;;49.15;25.52;;;3.30;99.90;;;;;;4993860;28;20169;-81
2023/01/25 06:21:02;;;;;;;51.38;21.98;;;3.30;99.90;;;;;;4993913;28;20197;-80
2023/01/25 06:23:28;;;;;;;42.92;22.95;;;3.40;99.90;;;;;;4992560;28;20195;-81
2023/01/25 06:25:59;;;;;;;45.55;22.75;;;3.80;99.90;;;;;;4992472;28;20219;-80
2023/01/25 06:28:25;;;;;;;36.47;21.92;;;3.70;99.90;;;;;;4994199;28;20196;-80
2023/01/25 06:30:50;;;;;;;40.72;21.80;;;3.80;99.90;;;;;;4992657;28;20236;-80
2023/01/25 06:33:16;;;;;;;39.53;21.48;;;3.70;99.90;;;;;;4993614;28;20165;-81
2023/01/25 06:35:42;;;;;;;45.45;23.27;;;3.50;99.90;;;;;;4993462;28;20588;-81
2023/01/25 06:38:08;;;;;;;45.55;25.50;;;3.30;99.90;;;;;;4993629;28;20166;-83
2023/01/25 06:40:33;;;;;;;40.92;24.20;;;3.40;99.90;;;;;;4993004;28;20196;-80
2023/01/25 06:43:10;;;;;;;41.35;23.05;;;3.50;99.90;;;;;;4993721;28;20169;-80
2023/01/25 06:45:35;;;;;;;43.25;24.50;;;3.60;99.90;;;;;;4993650;28;20204;-80
2023/01/25 06:48:01;;;;;;;40.50;23.60;;;3.50;99.90;;;;;;4994657;28;20660;-81
2023/01/25 06:50:27;;;;;;;39.83;21.85;;;3.40;99.90;;;;;;5000847;28;20196;-80
2023/01/25 06:52:53;;;;;;;48.95;23.05;;;3.30;99.90;;;;;;5000572;28;20157;-81
2023/01/25 06:55:20;;;;;;;46.78;24.63;;;3.30;99.90;;;;;;5000761;28;20173;-80
2023/01/25 06:57:46;;;;;;;48.03;23.77;;;3.10;99.90;;;;;;4999603;28;20200;-80
2023/01/25 07:00:12;;;;;;;44.45;23.30;;;3.20;99.90;;;;;;5000342;28;20248;-80
2023/01/25 07:02:38;;;;;;;39.47;22.75;;;3.40;99.90;;;;;;4994031;28;20192;-82
2023/01/25 07:05:04;;;;;;;39.50;21.38;;;3.30;99.90;;;;;;4992121;28;20213;-81
2023/01/25 07:07:29;;;;;;;42.63;23.67;;;3.40;99.90;;;;;;4992215;28;20169;-81
2023/01/25 07:09:55;;;;;;;49.97;22.75;;;3.40;99.90;;;;;;4993369;28;20328;-81
2023/01/25 07:12:21;;;;;;;42.83;23.60;;;3.60;99.90;;;;;;4992468;28;20169;-80
2023/01/25 07:14:48;;;;;;;41.47;24.00;;;3.50;99.90;;;;;;4993680;28;21275;-81
2023/01/25 07:17:14;;;;;;;52.65;25.02;;;3.50;99.90;;;;;;4991720;28;20218;-80
2023/01/25 07:19:40;;;;;;;41.55;23.25;;;3.50;99.90;;;;;;4993093;28;20220;-80
2023/01/25 07:22:05;;;;;;;46.20;24.73;;;3.50;99.90;;;;;;4991819;28;20166;-80
2023/01/25 07:24:31;;;;;;;51.35;24.80;;;3.60;99.90;;;;;;4992793;28;20293;-80
2023/01/25 07:26:56;;;;;;;40.13;24.55;;;3.50;99.90;;;;;;4992080;28;20165;-80
2023/01/25 07:29:22;;;;;;;47.78;23.00;;;3.60;99.90;;;;;;4991774;28;20304;-81
2023/01/25 07:31:48;;;;;;;50.85;22.48;;;3.70;99.90;;;;;;4991516;28;20166;-80
2023/01/25 07:34:14;;;;;;;49.00;24.60;;;3.40;99.90;;;;;;4993286;28;20192;-79
2023/01/25 07:36:40;;;;;;;43.35;24.23;;;3.70;99.90;;;;;;4997300;28;20165;-81
2023/01/25 07:39:08;;;;;;;45.33;23.70;;;3.90;99.90;;;;;;4996338;28;20165;-79
2023/01/25 07:41:34;;;;;;;40.42;24.20;;;3.80;99.90;;;;;;5003740;28;20178;-80
2023/01/25 07:44:00;;;;;;;52.45;25.52;;;3.70;99.90;;;;;;5004337;28;20696;-79
2023/01/25 07:46:26;;;;;;;38.78;23.23;;;3.70;99.90;;;;;;5000999;28;20200;-81
2023/01/25 07:48:52;;;;;;;42.88;23.92;;;3.20;99.90;;;;;;4996802;28;20575;-80
2023/01/25 07:51:23;;;;;;;49.60;24.50;;;2.90;99.90;;;;;;4996022;28;20189;-81
2023/01/25 07:53:55;;;;;;;44.35;24.27;;;2.90;99.90;;;;;;4995172;28;20169;-81
2023/01/25 07:56:30;;;;;;;47.60;25.10;;;3.10;99.90;;;;;;4996267;28;20181;-81
2023/01/25 07:58:57;;;;;;;50.17;24.77;;;3.20;99.90;;;;;;4996145;28;20160;-80
2023/01/25 08:01:25;;;;;;;47.88;25.98;;;3.10;99.90;;;;;;4994762;28;20617;-82
2023/01/25 08:03:52;;;;;;;44.20;23.65;;;3.00;99.90;;;;;;4995343;28;20165;-81
2023/01/25 08:06:26;;;;;;;43.38;23.48;;;3.30;99.90;;;;;;4996968;28;20161;-86
2023/01/25 08:08:52;;;;;;;44.72;24.55;;;3.40;99.90;;;;;;4995028;28;20633;-80
2023/01/25 08:11:21;;;;;;;50.20;25.63;;;3.20;99.90;;;;;;4996166;28;20567;-80
2023/01/25 08:13:48;;;;;;;53.10;26.00;;;3.20;99.90;;;;;;4995518;28;20331;-81
2023/01/25 08:16:16;;;;;;;62.95;26.67;;;3.50;99.90;;;;;;4995514;28;20173;-80
2023/01/25 08:18:45;;;;;;;50.30;25.58;;;3.50;99.90;;;;;;4996558;28;20165;-82
2023/01/25 08:21:11;;;;;;;52.83;26.77;;;3.70;99.90;;;;;;4995804;28;20202;-81
2023/01/25 08:23:37;;;;;;;56.70;26.58;;;3.80;99.90;;;;;;4995711;28;20595;-81
2023/01/25 08:26:06;;;;;;;46.13;24.75;;;3.60;99.90;;;;;;5001341;28;20736;-81
2023/01/25 08:28:34;;;;;;;47.13;26.60;;;3.40;99.90;;;;;;5008665;28;20157;-81
2023/01/25 08:31:15;;;;;;;50.67;25.73;;;3.60;99.90;;;;;;5006202;28;20189;-80
2023/01/25 08:33:44;;;;;;;48.25;26.55;;;3.10;99.90;;;;;;5011401;28;20169;-81
2023/01/25 08:36:12;;;;;;;49.70;25.42;;;3.10;99.90;;;;;;5011815;28;20219;-80
2023/01/25 08:38:38;;;;;;;48.22;24.85;;;3.30;99.90;;;;;;5014419;28;20161;-81
2023/01/25 08:41:13;;;;;;;45.92;24.45;;;3.30;99.90;;;;;;5002533;28;20185;-81
2023/01/25 08:43:39;;;;;;;47.83;25.63;;;3.30;99.90;;;;;;4994675;28;20165;-81
2023/01/25 08:46:05;;;;;;;48.28;24.58;;;3.30;99.90;;;;;;4993861;28;20327;-81
2023/01/25 08:48:31;;;;;;;50.70;25.65;;;3.40;99.90;;;;;;4995035;28;20664;-80
2023/01/25 08:50:57;;;;;;;45.97;26.30;;;3.30;99.90;;;;;;5006308;28;20196;-80
2023/01/25 08:53:23;;;;;;;51.05;25.92;;;3.40;99.90;;;;;;5013934;28;20172;-80
2023/01/25 08:55:49;;;;;;;48.10;26.88;;;3.50;99.90;;;;;;5014407;28;20529;-83
2023/01/25 08:58:18;;;;;;;46.55;24.40;;;3.50;99.90;;;;;;5015023;28;20712;-82
2023/01/25 09:00:44;;;;;;;51.58;26.98;;;3.50;99.90;;;;;;5015761;28;20279;-83
2023/01/25 09:03:10;;;;;;;51.30;27.23;;;3.90;99.90;;;;;;5011782;28;20575;-80
2023/01/25 09:05:38;;;;;;;52.50;27.48;;;4.10;99.90;;;;;;4995654;28;20200;-82
2023/01/25 09:08:05;;;;;;;53.45;26.30;;;4.10;99.90;;;;;;4995870;28;20553;-83
2023/01/25 09:10:31;;;;;;;48.33;25.60;;;4.00;99.90;;;;;;4999335;28;20224;-80
2023/01/25 09:12:56;;;;;;;46.97;25.83;;;4.00;99.90;;;;;;5015293;28;20242;-82
2023/01/25 09:15:22;;;;;;;51.58;25.60;;;3.70;99.90;;;;;;4998644;28;20173;-81
2023/01/25 09:17:56;;;;;;;53.75;27.25;;;3.50;99.90;;;;;;4994323;28;20193;-83
2023/01/25 09:20:22;;;;;;;51.25;27.98;;;3.60;99.90;;;;;;4993331;28;20213;-81
2023/01/25 09:22:48;;;;;;;46.88;24.77;;;3.70;99.90;;;;;;4995704;28;20177;-80
2023/01/25 09:25:14;;;;;;;48.78;25.70;;;3.80;99.90;;;;;;4995774;28;20296;-81
2023/01/25 09:27:40;;;;;;;54.17;29.17;;;4.00;99.90;;;;;;4996666;28;20252;-82
2023/01/25 09:30:09;;;;;;;49.45;27.63;;;3.90;99.90;;;;;;4993914;28;20673;-82
2023/01/25 09:32:37;;;;;;;49.13;25.85;;;4.00;99.90;;;;;;4995805;28;20231;-80
2023/01/25 09:35:04;;;;;;;51.95;26.85;;;3.50;99.90;;;;;;4995547;28;20161;-81
2023/01/25 09:37:29;;;;;;;57.75;27.83;;;3.30;99.90;;;;;;4995495;28;20201;-81
2023/01/25 09:39:55;;;;;;;50.33;26.35;;;3.30;99.90;;;;;;4995444;28;20684;-83
2023/01/25 09:42:37;;;;;;;59.03;28.45;;;3.20;99.90;;;;;;4993197;28;20177;-80
2023/01/25 09:45:25;;;;;;;54.70;26.98;;;3.20;99.90;;;;;;4995496;28;20271;-80
2023/01/25 09:48:09;;;;;;;50.80;26.35;;;3.30;99.90;;;;;;4995542;28;20188;-81
2023/01/25 09:50:38;;;;;;;47.60;25.38;;;2.90;99.90;;;;;;4994591;28;20185;-80
2023/01/25 09:53:32;;;;;;;49.60;25.70;;;3.00;99.90;;;;;;4993816;28;20180;-80
2023/01/25 09:56:11;;;;;;;57.72;27.27;;;2.80;99.90;;;;;;4993156;28;20173;-80
2023/01/25 09:58:41;;;;;;;51.05;27.27;;;3.10;99.90;;;;;;4995326;28;20173;-80
2023/01/25 10:01:35;;;;;;;52.10;25.08;;;3.20;99.90;;;;;;4994424;28;20182;-80
2023/01/25 10:04:15;;;;;;;53.63;26.98;;;3.20;99.90;;;;;;4994996;28;20676;-83
2023/01/25 10:06:44;;;;;;;48.97;26.17;;;3.30;99.90;;;;;;4993777;28;20183;-80
2023/01/25 10:09:35;;;;;;;60.72;26.17;;;3.30;99.90;;;;;;4993301;28;20169;-81
2023/01/25 10:12:17;;;;;;;48.15;25.27;;;3.10;99.90;;;;;;4994933;28;20173;-83
2023/01/25 10:14:43;;;;;;;61.63;27.35;;;3.30;99.90;;;;;;4993772;28;20656;-80
2023/01/25 10:17:28;;;;;;;49.92;26.27;;;3.30;99.90;;;;;;4993900;28;20193;-81
2023/01/25 10:20:27;;;;;;;49.65;25.63;;;3.40;99.90;;;;;;4993125;28;20197;-79
2023/01/25 10:23:03;;;;;;;58.05;26.48;;;3.30;99.90;;;;;;4994925;28;20289;-80
2023/01/25 10:25:47;;;;;;;56.72;28.08;;;3.00;99.90;;;;;;4995358;28;20234;-81
2023/01/25 10:28:27;;;;;;;53.78;26.00;;;2.70;99.90;;;;;;4995429;28;20172;-80
2023/01/25 10:31:01;;;;;;;61.72;28.63;;;2.80;99.90;;;;;;5000934;28;20199;-80
2023/01/25 10:33:29;;;;;;;57.13;27.70;;;2.90;99.90;;;;;;5003523;28;20639;-80
2023/01/25 10:35:58;;;;;;;60.53;27.88;;;3.00;99.90;;;;;;5006656;28;20162;-79
2023/01/25 10:38:31;;;;;;;61.28;29.42;;;3.10;99.90;;;;;;5015637;28;20158;-80
2023/01/25 10:41:10;;;;;;;54.20;26.65;;;3.10;99.90;;;;;;5014345;28;20185;-79
2023/01/25 10:46:20;;;;;;;58.55;29.60;;;3.20;99.90;;;;;;5013571;28;20497;-78
2023/01/25 10:49:10;;;;;;;58.58;29.92;;;3.20;99.90;;;;;;4997999;28;20225;-81
2023/01/25 10:51:36;;;;;;;64.68;31.42;;;3.10;99.90;;;;;;4989681;28;20192;-81
2023/01/25 10:54:14;;;;;;;60.38;28.70;;;3.30;99.90;;;;;;4986508;28;20226;-82
2023/01/25 10:56:47;;;;;;;63.63;29.48;;;3.40;99.90;;;;;;4965898;28;20182;-81
2023/01/25 10:59:21;;;;;;;57.30;27.30;;;3.50;99.90;;;;;;4978603;28;20165;-82
2023/01/25 11:01:47;;;;;;;62.72;29.13;;;3.40;99.90;;;;;;4964952;28;20165;-81
2023/01/25 11:04:34;;;;;;;56.38;28.92;;;3.50;99.90;;;;;;4959147;28;20252;-83
2023/01/25 11:07:01;;;;;;;56.58;28.75;;;3.80;99.90;;;;;;4959382;28;20253;-81
2023/01/25 11:09:36;;;;;;;56.72;28.02;;;4.10;99.90;;;;;;4961598;28;20270;-85
2023/01/25 11:12:17;;;;;;;66.85;29.92;;;3.80;99.90;;;;;;4975205;28;20173;-82
2023/01/25 11:14:43;;;;;;;56.75;28.02;;;3.70;99.90;;;;;;4963269;28;20250;-80
2023/01/25 11:17:30;;;;;;;54.72;27.63;;;3.70;99.90;;;;;;4963462;28;20206;-80
2023/01/25 11:20:19;;;;;;;50.45;26.55;;;3.60;99.90;;;;;;4961375;28;20193;-81
2023/01/25 11:22:54;;;;;;;53.40;28.08;;;3.60;99.90;;;;;;4957947;28;20197;-81
2023/01/25 11:25:31;;;;;;;56.08;28.40;;;3.50;99.90;;;;;;4965056;28;20286;-81
2023/01/25 11:28:19;;;;;;;55.10;27.65;;;3.80;99.90;;;;;;4970396;28;20200;-81
2023/01/25 11:30:46;;;;;;;55.38;27.92;;;4.00;99.90;;;;;;4962906;28;20213;-81
2023/01/25 11:33:14;;;;;;;59.95;28.15;;;4.20;99.90;;;;;;4960537;28;20232;-85
2023/01/25 11:36:09;;;;;;;58.83;27.35;;;4.10;99.90;;;;;;4965227;28;20166;-83
2023/01/25 11:38:38;;;;;;;55.95;29.42;;;3.70;99.90;;;;;;4952358;28;20193;-83
2023/01/25 11:41:18;;;;;;;59.45;28.83;;;3.30;99.90;;;;;;4978770;28;20197;-82
2023/01/25 11:43:56;;;;;;;54.78;27.77;;;3.30;99.90;;;;;;4973219;28;20516;-80
2023/01/25 11:46:36;;;;;;;63.78;31.40;;;3.60;99.90;;;;;;4973477;28;20201;-80
2023/01/25 11:49:40;;;;;;;70.00;29.20;;;3.80;99.90;;;;;;4974982;28;20174;-81
2023/01/25 11:52:15;;;;;;;63.78;27.75;;;3.40;99.90;;;;;;4950417;29;20654;-81
2023/01/25 11:54:44;;;;;;;49.63;25.50;;;3.50;99.90;;;;;;4973912;28;20240;-80
2023/01/25 11:57:40;;;;;;;59.08;26.48;;;3.30;99.90;;;;;;4974214;28;20237;-81
2023/01/25 12:00:29;;;;;;;59.55;29.38;;;3.40;99.90;;;;;;4973662;28;20221;-81
2023/01/25 12:03:13;;;;;;;54.55;26.90;;;3.50;99.90;;;;;;4959099;28;20191;-82
2023/01/25 12:05:53;;;;;;;60.15;29.35;;;3.90;99.90;;;;;;4967820;28;20217;-81
2023/01/25 12:08:44;;;;;;;76.93;28.98;;;3.80;99.90;;;;;;4955122;28;20171;-82
2023/01/25 12:11:35;;;;;;;65.45;29.83;;;4.00;99.90;;;;;;4953097;29;20194;-81
2023/01/25 12:14:31;;;;;;;60.53;28.33;;;3.90;99.90;;;;;;4959609;28;20588;-81
2023/01/25 12:17:23;;;;;;;64.00;31.08;;;4.00;99.90;;;;;;4969859;28;20186;-82
2023/01/25 12:20:05;;;;;;;62.33;28.52;;;3.70;99.90;;;;;;4980655;28;20200;-81
2023/01/25 12:22:31;;;;;;;59.05;28.88;;;4.00;99.90;;;;;;4976734;28;20177;-81
2023/01/25 12:25:21;;;;;;;68.32;30.20;;;4.10;99.90;;;;;;4976295;28;20216;-80
2023/01/25 12:27:59;;;;;;;62.70;30.67;;;4.10;99.90;;;;;;4976969;28;20493;-79
2023/01/25 12:30:42;;;;;;;58.30;29.33;;;4.40;99.90;;;;;;4990562;28;20201;-81
2023/01/25 12:33:17;;;;;;;60.00;28.48;;;4.40;99.90;;;;;;4995943;28;20673;-80
2023/01/25 12:35:56;;;;;;;64.72;28.05;;;4.40;99.90;;;;;;4996936;28;20259;-80
2023/01/25 12:38:41;;;;;;;62.30;30.35;;;4.60;99.90;;;;;;4996422;28;20185;-80
2023/01/25 12:41:24;;;;;;;61.13;30.42;;;4.60;99.90;;;;;;4995823;28;20229;-80
2023/01/25 12:44:15;;;;;;;66.00;30.08;;;4.50;99.90;;;;;;4996537;28;20184;-79
2023/01/25 12:47:00;;;;;;;64.53;30.73;;;4.30;99.90;;;;;;4995365;28;20193;-80
2023/01/25 12:49:42;;;;;;;61.72;30.25;;;4.30;99.90;;;;;;4995199;28;20595;-80
2023/01/25 12:52:35;;;;;;;61.97;29.63;;;4.30;99.90;;;;;;4996933;28;20232;-80
2023/01/25 12:55:21;;;;;;;66.05;30.02;;;4.20;99.90;;;;;;4993648;28;20277;-79